KLUL/LUL METAR and TAF weather

Enter ICAO airport designator
Station Type Date Time Source
KLUL METAR 2022/01/25 04:35 UTC NOAA

KLUL 250435Z AUTO 23004KT 10SM -RA SCT065 OVC080 08/05 A2999 RMK A02 T00780053


Station Type Date Time Source
KLUL Decoded METAR 2022/01/25 04:35 UTC NOAA

Station name not available
Jan 24, 2022 - 11:35 PM EST / 2022.01.25 0435 UTC
Wind: from the SW (230 degrees) at 5 MPH (4 KT):0
Visibility: 10 mile(s):0
Sky conditions: overcast
Weather: light rain
Temperature: 46.0 F (7.8 C)
Dew Point: 41.5 F (5.3 C)
Relative Humidity: 84%
Pressure (altimeter): 29.99 in. Hg (1015 hPa)
ob: KLUL 250435Z AUTO 23004KT 10SM -RA SCT065 OVC080 08/05 A2999 RMK A02 T00780053
cycle: 4

Station Type Date Time Source
KLUL TAF UTC NOAA

Error!

Example: see airport list